Terminal Aerodrome Forecast
Issued by NWS

Home | Current Version | Previous Version | Text Only | Print | Product List | Glossary Off
Versions: 1 2 3 4 5 6 7 8 9 10 11 12 13 14 15 16 17

000
FTUS45 KGGW 170527
TAFSDY
TAF
KSDY 170527Z 1706/1806 13018KT P6SM BKN110 WS020/13040KT
     FM171000 13011KT P6SM VCSH BKN070
     FM171600 13010KT P6SM -SHRA OVC025
     FM172100 28008KT P6SM -SHRA OVC020=

USA.gov is the U.S. government's official web portal to all federal, state and local government web resources and services.